Terminal Aerodrome Forecast
Issued by NWS

Home | Current Version | Previous Version | Text Only | Print | Product List | Glossary On
Versions: 1 2 3 4 5 6 7 8 9 10 11 12 13 14 15 16 17 18 19 20 21 22 23 24
000
FTUS45 KREV 242328
TAFCXP
TAF
KCXP 242328Z 2500/2524 23014G26KT P6SM SCT080 SCT200
     FM250200 26010G18KT P6SM FEW080 BKN200
     FM250500 29006KT P6SM SCT080
     FM251000 VRB04KT P6SM SKC
     FM251900 25014G24KT P6SM FEW120=

USA.gov is the U.S. government's official web portal to all federal, state and local government web resources and services.